Time;durP1;ratioP1;P1;durP2;ratioP2;P2;SDS_P1;SDS_P2;PMS_P1;PMS_P2;Temp;Humidity;BMP_temperature;BMP_pressure;BME280_temperature;BME280_humidity;BME280_pressure;Samples;Min_cycle;Max_cycle;Signal;HPM_P1;HPM_P2
2024/04/20 00:00:45;;;;;;;1.50;0.90;;;;;;;5.16;100.00;95685.50;5390753;26;20293;-72
2024/04/20 00:03:13;;;;;;;0.80;0.67;;;;;;;5.22;100.00;95681.44;5391244;26;20260;-73
2024/04/20 00:05:41;;;;;;;1.20;0.70;;;;;;;5.33;100.00;95692.41;5390800;26;20235;-74
2024/04/20 00:08:09;;;;;;;1.43;1.00;;;;;;;5.28;100.00;95694.69;5392646;26;20239;-74
2024/04/20 00:10:40;;;;;;;2.57;1.10;;;;;;;5.31;100.00;95694.38;5391743;26;20333;-74
2024/04/20 00:13:09;;;;;;;1.10;0.90;;;;;;;5.25;100.00;95691.59;5390985;26;20303;-74
2024/04/20 00:15:41;;;;;;;0.90;0.80;;;;;;;5.38;100.00;95692.75;5392565;26;20349;-73
2024/04/20 00:18:09;;;;;;;1.10;0.90;;;;;;;5.19;100.00;95700.03;5392078;26;20226;-74
2024/04/20 00:20:37;;;;;;;0.80;0.73;;;;;;;5.13;100.00;95696.28;5392141;26;20310;-74
2024/04/20 00:23:06;;;;;;;0.77;0.70;;;;;;;5.11;100.00;95694.78;5391238;26;20287;-73
2024/04/20 00:25:34;;;;;;;0.87;0.87;;;;;;;5.15;100.00;95696.91;5392960;26;20287;-74
2024/04/20 00:28:05;;;;;;;1.30;1.00;;;;;;;5.18;100.00;95693.19;5392091;26;20403;-73
2024/04/20 00:30:33;;;;;;;1.00;0.90;;;;;;;4.99;100.00;95696.88;5393537;26;20231;-73
2024/04/20 00:33:01;;;;;;;2.53;0.90;;;;;;;5.13;100.00;95701.50;5392077;26;20243;-74
2024/04/20 00:35:29;;;;;;;1.03;0.93;;;;;;;5.13;100.00;95705.88;5393547;26;20290;-74
2024/04/20 00:37:58;;;;;;;6.87;2.80;;;;;;;5.13;100.00;95706.72;5393104;26;20291;-73
2024/04/20 00:40:26;;;;;;;1.73;1.17;;;;;;;5.13;100.00;95701.50;5392697;26;20231;-73
2024/04/20 00:42:54;;;;;;;2.30;1.50;;;;;;;5.11;100.00;95698.22;5392572;26;20298;-74
2024/04/20 00:45:26;;;;;;;2.80;1.10;;;;;;;5.26;100.00;95704.47;5396676;26;20308;-73
2024/04/20 00:47:54;;;;;;;0.77;0.77;;;;;;;5.20;100.00;95706.91;5395836;26;20233;-74
2024/04/20 00:50:25;;;;;;;3.20;1.60;;;;;;;5.32;100.00;95706.47;5395988;26;20290;-74
2024/04/20 00:52:53;;;;;;;1.40;1.23;;;;;;;5.38;100.00;95705.81;5394502;26;20273;-74
2024/04/20 00:55:22;;;;;;;6.10;1.70;;;;;;;5.37;100.00;95703.38;5395922;26;20242;-74
2024/04/20 00:57:50;;;;;;;3.57;1.50;;;;;;;5.43;100.00;95700.13;5395085;26;20330;-74
2024/04/20 01:00:19;;;;;;;2.60;1.40;;;;;;;5.39;100.00;95701.44;5396162;26;20339;-74
2024/04/20 01:02:50;;;;;;;1.23;0.93;;;;;;;5.49;100.00;95697.69;5394682;26;20287;-74
2024/04/20 01:05:19;;;;;;;1.20;1.10;;;;;;;5.33;100.00;95699.44;5396770;26;20243;-74
2024/04/20 01:07:47;;;;;;;1.57;1.07;;;;;;;5.45;100.00;95702.41;5395597;26;20290;-74
2024/04/20 01:10:15;;;;;;;1.73;1.37;;;;;;;5.53;100.00;95699.81;5395878;26;20737;-74
2024/04/20 01:12:43;;;;;;;3.10;1.53;;;;;;;5.45;100.00;95706.84;5394415;26;20372;-73
2024/04/20 01:15:12;;;;;;;3.63;1.40;;;;;;;5.44;100.00;95702.59;5395229;26;20282;-73
2024/04/20 01:17:40;;;;;;;1.90;1.10;;;;;;;5.51;100.00;95704.41;5394402;26;20301;-73
2024/04/20 01:20:13;;;;;;;2.27;1.67;;;;;;;5.63;100.00;95716.19;5395188;26;20381;-73
2024/04/20 01:22:42;;;;;;;3.90;1.93;;;;;;;5.57;100.00;95706.34;5394119;26;20284;-74
2024/04/20 01:25:11;;;;;;;2.90;1.27;;;;;;;5.55;100.00;95703.09;5396407;26;20851;-74
2024/04/20 01:27:44;;;;;;;2.50;1.27;;;;;;;5.77;100.00;95717.41;5394604;26;20283;-74
2024/04/20 01:30:15;;;;;;;2.23;1.73;;;;;;;5.39;100.00;95738.00;5396265;26;20695;-73
2024/04/20 01:32:43;;;;;;;1.20;0.90;;;;;;;5.23;100.00;95741.38;5393517;26;20253;-73
2024/04/20 01:35:11;;;;;;;1.17;0.70;;;;;;;5.07;100.00;95733.44;5395980;26;20306;-74
2024/04/20 01:37:40;;;;;;;2.37;1.13;;;;;;;4.94;100.00;95743.50;5395460;26;20336;-74
2024/04/20 01:40:09;;;;;;;1.10;1.00;;;;;;;4.78;100.00;95736.56;5395341;26;20271;-73
2024/04/20 01:42:34;;;;;;;0.97;0.70;;;;;;;4.68;100.00;95731.44;5393483;26;20302;-74
2024/04/20 01:45:05;;;;;;;1.87;1.17;;;;;;;4.73;100.00;95728.38;5395402;26;20334;-73
2024/04/20 01:47:34;;;;;;;4.57;1.93;;;;;;;4.66;100.00;95728.16;5395237;26;20261;-73
2024/04/20 01:50:02;;;;;;;2.63;1.20;;;;;;;4.53;100.00;95719.09;5393803;26;21631;-73
2024/04/20 01:52:30;;;;;;;2.23;1.60;;;;;;;4.61;100.00;95719.13;5393776;26;20839;-73
2024/04/20 01:54:58;;;;;;;2.57;1.70;;;;;;;4.53;100.00;95734.75;5394321;26;21598;-74
2024/04/20 01:57:27;;;;;;;1.60;1.30;;;;;;;4.64;100.00;95734.50;5395032;26;20294;-73
2024/04/20 01:59:55;;;;;;;2.30;1.30;;;;;;;4.46;100.00;95728.50;5394733;26;20317;-74
2024/04/20 02:02:26;;;;;;;2.60;1.00;;;;;;;4.52;100.00;95740.94;5393648;26;20301;-74
2024/04/20 02:08:16;;;;;;;2.83;1.57;;;;;;;4.56;100.00;95739.69;5393651;26;20330;-74
2024/04/20 02:10:44;;;;;;;2.67;1.63;;;;;;;4.47;100.00;95733.56;5395228;26;20242;-73
2024/04/20 02:13:12;;;;;;;2.00;1.27;;;;;;;4.49;100.00;95736.03;5394076;26;20566;-74
2024/04/20 02:15:40;;;;;;;1.90;1.47;;;;;;;4.54;100.00;95739.00;5393399;26;20241;-74
2024/04/20 02:18:11;;;;;;;1.30;1.03;;;;;;;4.73;100.00;95744.84;5395407;26;20278;-74
2024/04/20 02:20:39;;;;;;;3.03;1.70;;;;;;;4.76;100.00;95741.09;5394900;26;20353;-74
2024/04/20 02:23:07;;;;;;;2.53;1.43;;;;;;;4.72;100.00;95737.16;5394032;26;20663;-74
2024/04/20 02:25:35;;;;;;;2.13;1.43;;;;;;;4.84;100.00;95745.41;5394785;26;20231;-73
2024/04/20 02:28:03;;;;;;;1.83;1.23;;;;;;;4.83;100.00;95743.75;5394372;26;20227;-73
2024/04/20 02:30:32;;;;;;;1.60;1.30;;;;;;;4.84;100.00;95742.78;5393718;26;20694;-74
2024/04/20 02:33:00;;;;;;;2.13;1.20;;;;;;;4.91;100.00;95743.81;5394624;26;20230;-73
2024/04/20 02:35:30;;;;;;;2.40;1.37;;;;;;;5.06;100.00;95742.25;5394668;26;20563;-74
2024/04/20 02:37:59;;;;;;;1.60;1.27;;;;;;;5.14;100.00;95744.09;5394198;26;20834;-73
2024/04/20 02:40:27;;;;;;;4.53;2.00;;;;;;;5.24;100.00;95750.00;5395013;26;20336;-74
2024/04/20 02:42:55;;;;;;;3.83;1.83;;;;;;;5.34;100.00;95741.06;5393639;26;20234;-74
2024/04/20 02:45:23;;;;;;;5.33;2.37;;;;;;;5.40;100.00;95745.69;5394166;26;20350;-74
2024/04/20 02:47:51;;;;;;;1.50;0.90;;;;;;;5.13;100.00;95748.50;5393927;26;20227;-74
2024/04/20 02:50:20;;;;;;;2.10;1.20;;;;;;;5.09;100.00;95746.34;5394967;26;20832;-74
2024/04/20 02:52:51;;;;;;;2.10;1.27;;;;;;;5.22;100.00;95744.94;5393494;26;20231;-73
2024/04/20 02:55:19;;;;;;;2.43;1.37;;;;;;;5.10;100.00;95742.75;5394309;26;20257;-74
2024/04/20 02:57:47;;;;;;;2.33;1.50;;;;;;;5.16;100.00;95742.94;5394647;26;20334;-74
2024/04/20 03:00:15;;;;;;;3.33;1.70;;;;;;;5.21;100.00;95751.16;5393866;26;20339;-73
2024/04/20 03:02:43;;;;;;;1.63;1.10;;;;;;;4.98;100.00;95752.66;5392051;26;20286;-74
2024/04/20 03:05:11;;;;;;;3.33;1.73;;;;;;;5.14;100.00;95757.13;5392871;26;20531;-73
2024/04/20 03:07:40;;;;;;;5.33;1.77;;;;;;;5.09;100.00;95765.47;5394412;26;20303;-73
2024/04/20 03:10:11;;;;;;;5.37;1.97;;;;;;;5.26;100.00;95764.56;5394067;26;20312;-73
2024/04/20 03:12:39;;;;;;;2.83;1.33;;;;;;;5.06;100.00;95764.94;5392935;26;20285;-74
2024/04/20 03:15:07;;;;;;;1.60;1.10;;;;;;;5.09;100.00;95762.00;5393065;26;20239;-73
2024/04/20 03:17:35;;;;;;;2.17;1.63;;;;;;;5.07;100.00;95767.38;5393830;26;20327;-74
2024/04/20 03:20:04;;;;;;;1.70;1.13;;;;;;;5.07;100.00;95772.63;5394083;26;20230;-73
2024/04/20 03:22:32;;;;;;;10.27;1.77;;;;;;;5.05;100.00;95773.75;5393148;26;20305;-73
2024/04/20 03:25:00;;;;;;;1.80;1.30;;;;;;;5.08;100.00;95781.28;5392573;26;20235;-73
2024/04/20 03:27:31;;;;;;;1.83;1.10;;;;;;;5.18;100.00;95774.97;5393802;26;20347;-73
2024/04/20 03:29:59;;;;;;;1.43;1.00;;;;;;;5.12;100.00;95782.59;5393835;26;20291;-74
2024/04/20 03:32:27;;;;;;;2.13;1.03;;;;;;;5.09;100.00;95781.13;5391871;26;20239;-74
2024/04/20 03:34:55;;;;;;;3.47;1.10;;;;;;;5.13;100.00;95786.84;5393154;26;20222;-74
2024/04/20 03:37:24;;;;;;;2.93;1.43;;;;;;;5.13;100.00;95787.66;5392951;26;20338;-74
2024/04/20 03:39:52;;;;;;;1.57;1.23;;;;;;;5.07;100.00;95788.28;5393986;26;20226;-73
2024/04/20 03:42:21;;;;;;;1.83;1.40;;;;;;;5.15;100.00;95793.53;5391865;26;20756;-74
2024/04/20 03:44:51;;;;;;;1.30;1.20;;;;;;;5.28;100.00;95803.56;5394469;26;20290;-74
2024/04/20 03:47:17;;;;;;;1.53;1.00;;;;;;;5.04;100.00;95803.44;5393176;26;20333;-74
2024/04/20 03:49:45;;;;;;;4.43;1.30;;;;;;;5.13;100.00;95805.94;5393489;26;20242;-74
2024/04/20 03:52:14;;;;;;;1.53;1.10;;;;;;;4.99;100.00;95803.91;5392830;26;20345;-74
2024/04/20 03:54:42;;;;;;;1.07;0.90;;;;;;;5.00;100.00;95808.16;5393262;26;21260;-73
2024/04/20 03:57:10;;;;;;;2.03;1.37;;;;;;;4.98;100.00;95812.69;5393013;26;20548;-74
2024/04/20 03:59:38;;;;;;;0.90;0.70;;;;;;;5.00;100.00;95809.94;5393946;26;20226;-73
2024/04/20 04:02:09;;;;;;;1.07;0.93;;;;;;;5.05;100.00;95812.91;5391664;26;20304;-74
2024/04/20 04:04:37;;;;;;;0.80;0.80;;;;;;;4.88;100.00;95822.41;5394094;26;20331;-74
2024/04/20 04:07:06;;;;;;;3.03;1.30;;;;;;;4.85;100.00;95829.75;5393480;26;20235;-73
2024/04/20 04:09:35;;;;;;;1.67;1.10;;;;;;;4.81;100.00;95817.16;5394081;26;21155;-74
2024/04/20 04:12:03;;;;;;;1.63;0.70;;;;;;;4.89;100.00;95829.28;5391832;26;20268;-74
2024/04/20 04:14:32;;;;;;;0.80;0.80;;;;;;;4.84;100.00;95831.53;5392605;26;20709;-73
2024/04/20 04:17:00;;;;;;;2.93;1.00;;;;;;;4.88;100.00;95838.09;5393874;26;20566;-73
2024/04/20 04:19:30;;;;;;;1.37;1.27;;;;;;;4.93;100.00;95835.03;5396797;26;20285;-74
2024/04/20 04:21:59;;;;;;;1.17;1.07;;;;;;;4.98;100.00;95843.22;5393998;26;20361;-74
2024/04/20 04:24:27;;;;;;;4.37;1.17;;;;;;;5.02;100.00;95836.72;5397575;26;20233;-74
2024/04/20 04:27:11;;;;;;;1.73;1.30;;;;;;;5.15;100.00;95845.78;5395267;26;20239;-74
2024/04/20 04:29:39;;;;;;;7.07;1.90;;;;;;;4.95;100.00;95854.78;5397258;26;20293;-74
2024/04/20 04:32:08;;;;;;;1.77;1.27;;;;;;;4.88;100.00;95855.53;5395133;26;20320;-74
2024/04/20 04:34:39;;;;;;;0.83;0.80;;;;;;;4.97;100.00;95860.66;5395755;26;20272;-74
2024/04/20 04:37:07;;;;;;;4.00;1.57;;;;;;;4.85;100.00;95850.63;5395113;26;20330;-74
2024/04/20 04:39:35;;;;;;;5.53;2.10;;;;;;;4.87;100.00;95859.97;5395760;26;20297;-74
2024/04/20 04:42:03;;;;;;;1.83;1.10;;;;;;;4.95;100.00;95857.41;5394392;26;20338;-74
2024/04/20 04:44:31;;;;;;;1.60;0.97;;;;;;;4.85;100.00;95864.50;5396022;26;20235;-75
2024/04/20 04:46:59;;;;;;;3.90;2.23;;;;;;;4.78;100.00;95880.09;5396246;26;20269;-74
2024/04/20 04:49:25;;;;;;;1.37;0.80;;;;;;;4.82;100.00;95886.66;5396193;26;20671;-74
2024/04/20 04:51:56;;;;;;;2.43;0.67;;;;;;;4.96;100.00;95885.16;5394399;26;20240;-73
2024/04/20 04:54:25;;;;;;;1.00;0.90;;;;;;;4.91;100.00;95890.00;5394618;26;20723;-73
2024/04/20 04:56:54;;;;;;;1.30;0.90;;;;;;;4.83;100.00;95897.75;5396262;26;20297;-73
2024/04/20 04:59:23;;;;;;;1.47;1.00;;;;;;;4.71;100.00;95898.16;5394357;26;20272;-73
2024/04/20 05:01:53;;;;;;;1.73;1.60;;;;;;;4.88;100.00;95895.50;5395115;26;20878;-72
2024/04/20 05:04:21;;;;;;;1.10;0.90;;;;;;;5.01;100.00;95901.16;5395389;26;20646;-73
2024/04/20 05:06:51;;;;;;;1.37;0.90;;;;;;;4.89;100.00;95902.38;5397306;26;20234;-73
2024/04/20 05:09:22;;;;;;;2.83;1.70;;;;;;;5.03;100.00;95898.41;5395167;26;20230;-73
2024/04/20 05:11:50;;;;;;;2.53;1.40;;;;;;;4.94;100.00;95910.56;5395078;26;20582;-73
2024/04/20 05:14:19;;;;;;;1.57;0.90;;;;;;;4.93;100.00;95911.53;5395898;26;20266;-72
2024/04/20 05:16:48;;;;;;;3.07;1.10;;;;;;;4.96;100.00;95913.88;5395099;26;20330;-73
2024/04/20 05:19:16;;;;;;;0.93;0.90;;;;;;;5.07;100.00;95916.22;5395185;26;20315;-73
2024/04/20 05:21:44;;;;;;;1.20;1.10;;;;;;;5.02;100.00;95918.47;5395753;26;20643;-73
2024/04/20 05:24:12;;;;;;;2.03;1.13;;;;;;;5.22;100.00;95913.88;5393982;26;20239;-72
2024/04/20 05:26:43;;;;;;;1.77;1.17;;;;;;;5.41;100.00;95921.53;5395669;26;20235;-73
2024/04/20 05:29:11;;;;;;;3.80;1.70;;;;;;;5.32;100.00;95925.06;5393755;26;20271;-73
2024/04/20 05:31:39;;;;;;;3.77;1.40;;;;;;;5.30;100.00;95930.44;5395332;26;20832;-73
2024/04/20 05:34:07;;;;;;;1.80;1.23;;;;;;;5.29;100.00;95928.78;5394212;26;20335;-72
2024/04/20 05:36:36;;;;;;;1.40;1.20;;;;;;;5.41;100.00;95935.44;5396216;26;20251;-73
2024/04/20 05:39:04;;;;;;;1.53;1.17;;;;;;;5.37;100.00;95939.28;5395126;26;20294;-73
2024/04/20 05:41:32;;;;;;;2.13;1.10;;;;;;;5.38;100.00;95940.94;5395519;26;20933;-72
2024/04/20 05:44:03;;;;;;;6.13;1.73;;;;;;;5.45;100.00;95948.03;5393110;26;20238;-73
2024/04/20 05:46:31;;;;;;;3.33;1.80;;;;;;;5.43;100.00;95948.34;5395782;26;20231;-73
2024/04/20 05:48:59;;;;;;;2.73;1.67;;;;;;;5.47;100.00;95951.31;5394492;26;20302;-73
2024/04/20 05:51:28;;;;;;;2.40;1.03;;;;;;;5.35;100.00;95956.94;5394115;26;20624;-73
2024/04/20 05:53:56;;;;;;;2.07;1.50;;;;;;;5.37;100.00;95973.25;5391507;26;20234;-72
2024/04/20 05:56:21;;;;;;;3.77;1.27;;;;;;;5.36;100.00;95963.81;5393369;26;21312;-72
2024/04/20 05:58:50;;;;;;;2.60;1.57;;;;;;;5.25;100.00;95977.09;5393060;26;20247;-72
2024/04/20 06:01:21;;;;;;;1.17;1.07;;;;;;;5.38;100.00;95974.91;5393631;26;20234;-72
2024/04/20 06:03:49;;;;;;;1.47;1.27;;;;;;;5.27;100.00;95983.00;5394149;26;20272;-72
2024/04/20 06:06:17;;;;;;;3.13;1.17;;;;;;;5.11;100.00;95984.66;5390683;26;20252;-72
2024/04/20 06:08:45;;;;;;;3.00;1.40;;;;;;;5.28;100.00;95987.22;5395521;26;20494;-73
2024/04/20 06:11:13;;;;;;;2.70;1.50;;;;;;;5.28;100.00;95989.84;5392602;26;20478;-72
2024/04/20 06:13:41;;;;;;;1.37;1.27;;;;;;;5.23;100.00;96002.56;5394323;26;20230;-72
2024/04/20 06:16:09;;;;;;;1.80;1.23;;;;;;;5.39;100.00;96000.06;5394535;26;20242;-72
2024/04/20 06:18:40;;;;;;;3.00;1.03;;;;;;;5.57;100.00;96003.47;5395545;26;20402;-72
2024/04/20 06:21:08;;;;;;;1.10;1.00;;;;;;;5.50;100.00;96010.28;5394126;26;20231;-73
2024/04/20 06:23:37;;;;;;;3.03;1.10;;;;;;;5.40;100.00;96011.31;5393588;26;20299;-72
2024/04/20 06:26:03;;;;;;;5.43;1.37;;;;;;;5.33;100.00;96010.28;5392355;26;20234;-72
2024/04/20 06:28:31;;;;;;;1.30;1.20;;;;;;;5.42;100.00;96015.41;5393460;26;20234;-72
2024/04/20 06:30:59;;;;;;;5.60;1.47;;;;;;;5.34;100.00;96011.94;5393222;26;20252;-73
2024/04/20 06:33:29;;;;;;;2.43;1.27;;;;;;;5.22;100.00;96019.19;5392580;26;20231;-73
2024/04/20 06:36:00;;;;;;;1.60;0.80;;;;;;;5.23;100.00;96020.00;5392868;26;20230;-73
2024/04/20 06:38:28;;;;;;;0.60;0.53;;;;;;;5.14;100.00;96021.72;5392982;26;20277;-72
2024/04/20 06:40:56;;;;;;;1.10;0.90;;;;;;;5.05;100.00;96032.25;5393570;26;20242;-72
2024/04/20 06:43:24;;;;;;;0.63;0.53;;;;;;;4.98;100.00;96039.84;5391723;26;21117;-72
2024/04/20 06:45:53;;;;;;;0.57;0.57;;;;;;;4.86;100.00;96043.66;5393454;26;20227;-72
2024/04/20 06:48:21;;;;;;;1.00;0.87;;;;;;;4.60;100.00;96048.88;5393703;26;20238;-72
2024/04/20 06:50:49;;;;;;;2.70;0.77;;;;;;;4.82;100.00;96051.09;5392337;26;20741;-71
2024/04/20 06:53:19;;;;;;;0.80;0.80;;;;;;;4.80;100.00;96058.22;5391955;26;20270;-73
2024/04/20 06:55:55;;;;;;;0.80;0.80;;;;;;;4.99;100.00;96051.94;5391671;26;20355;-72
2024/04/20 06:58:24;;;;;;;1.87;1.27;;;;;;;5.05;100.00;96053.97;5394488;26;20307;-74
2024/04/20 07:00:52;;;;;;;1.67;1.13;;;;;;;5.03;100.00;96055.88;5389850;26;20221;-73
2024/04/20 07:03:21;;;;;;;3.10;1.23;;;;;;;5.17;100.00;96060.59;5389049;26;20813;-73
2024/04/20 07:05:53;;;;;;;0.80;0.80;;;;;;;5.40;100.00;96064.41;5389751;26;20231;-73
2024/04/20 07:08:24;;;;;;;1.43;1.13;;;;;;;5.71;100.00;96065.66;5392888;26;20218;-72
2024/04/20 07:10:55;;;;;;;1.47;1.27;;;;;;;6.14;100.00;96063.88;5391577;26;20331;-73
2024/04/20 07:13:23;;;;;;;1.30;1.10;;;;;;;6.22;100.00;96064.75;5391052;26;20258;-72
2024/04/20 07:15:51;;;;;;;3.03;1.67;;;;;;;6.22;100.00;96075.22;5393001;26;21169;-72
2024/04/20 07:18:20;;;;;;;2.37;1.13;;;;;;;6.34;100.00;96063.50;5393833;26;20808;-73
2024/04/20 07:20:48;;;;;;;6.83;1.27;;;;;;;6.35;100.00;96080.84;5394215;26;20238;-73
2024/04/20 07:23:16;;;;;;;3.97;1.83;;;;;;;6.35;100.00;96080.84;5390373;26;20226;-72
2024/04/20 07:25:47;;;;;;;1.93;1.03;;;;;;;6.24;100.00;96086.31;5393612;26;21227;-73
2024/04/20 07:28:15;;;;;;;3.03;1.00;;;;;;;5.92;100.00;96079.22;5392648;26;20825;-73
2024/04/20 07:30:43;;;;;;;1.07;0.70;;;;;;;6.13;100.00;96080.53;5394010;26;20269;-73
2024/04/20 07:33:11;;;;;;;1.20;1.10;;;;;;;6.12;100.00;96082.34;5391537;26;20231;-72
2024/04/20 07:35:39;;;;;;;1.57;1.13;;;;;;;6.22;100.00;96088.28;5394635;26;20223;-72
2024/04/20 07:38:07;;;;;;;1.03;0.93;;;;;;;6.33;100.00;96093.25;5392360;26;20227;-72
2024/04/20 07:40:36;;;;;;;3.60;1.40;;;;;;;7.01;100.00;96087.00;5390323;26;20270;-72
2024/04/20 07:43:07;;;;;;;1.87;1.43;;;;;;;7.16;100.00;96096.72;5389067;26;20238;-72
2024/04/20 07:45:35;;;;;;;1.63;1.27;;;;;;;6.96;100.00;96102.38;5392831;26;20825;-73
2024/04/20 07:48:04;;;;;;;1.43;1.00;;;;;;;6.82;100.00;96105.59;5391292;26;20231;-72
2024/04/20 07:50:32;;;;;;;3.67;1.60;;;;;;;6.66;100.00;96110.78;5391671;26;20339;-72
2024/04/20 07:53:00;;;;;;;1.63;1.03;;;;;;;6.83;100.00;96112.47;5391032;26;20282;-72
2024/04/20 07:55:28;;;;;;;1.53;1.00;;;;;;;6.29;100.00;96123.31;5392016;26;21162;-72
2024/04/20 07:57:56;;;;;;;1.20;1.00;;;;;;;6.54;100.00;96122.47;5391308;26;20227;-73
2024/04/20 08:00:27;;;;;;;3.50;1.03;;;;;;;6.95;100.00;96113.81;5391497;26;20764;-73
2024/04/20 08:02:55;;;;;;;1.33;1.10;;;;;;;6.94;100.00;96118.25;5390996;26;21226;-73
2024/04/20 08:05:23;;;;;;;2.03;1.60;;;;;;;6.99;100.00;96117.81;5390060;26;20235;-73
2024/04/20 08:07:52;;;;;;;2.40;1.00;;;;;;;7.05;100.00;96122.38;5391870;26;20238;-73
2024/04/20 08:10:20;;;;;;;1.53;1.07;;;;;;;7.34;100.00;96124.47;5391198;26;20637;-72
2024/04/20 08:12:48;;;;;;;1.47;1.07;;;;;;;7.79;100.00;96124.88;5391292;26;20227;-73
2024/04/20 08:15:16;;;;;;;3.50;0.97;;;;;;;7.87;100.00;96130.09;5392615;26;20996;-72
2024/04/20 08:17:47;;;;;;;3.60;1.10;;;;;;;7.70;100.00;96136.34;5392627;26;20355;-72
2024/04/20 08:20:16;;;;;;;2.83;0.83;;;;;;;7.42;100.00;96136.75;5391613;26;20230;-72
2024/04/20 08:22:45;;;;;;;0.90;0.80;;;;;;;7.42;100.00;96142.81;5391736;26;20243;-73
2024/04/20 08:25:13;;;;;;;4.10;0.83;;;;;;;7.49;100.00;96149.06;5390895;26;20235;-73
2024/04/20 08:27:41;;;;;;;2.43;1.00;;;;;;;7.29;100.00;96147.72;5392762;26;20717;-72
2024/04/20 08:30:10;;;;;;;0.53;0.53;;;;;;;7.44;100.00;96153.94;5392838;26;20227;-72
2024/04/20 08:32:38;;;;;;;1.20;1.10;;;;;;;7.13;100.00;96151.22;5392621;26;20238;-73
2024/04/20 08:35:09;;;;;;;2.57;1.00;;;;;;;7.09;100.00;96158.59;5391678;26;20261;-72
2024/04/20 08:37:39;;;;;;;1.30;1.07;;;;;;;6.97;100.00;96161.66;5393015;26;20239;-72
2024/04/20 08:40:10;;;;;;;1.97;1.13;;;;;;;7.08;100.00;96172.69;5391936;26;20266;-72
2024/04/20 08:42:38;;;;;;;1.00;0.90;;;;;;;7.23;100.00;96176.34;5391921;26;20701;-72
2024/04/20 08:45:11;;;;;;;1.77;0.93;;;;;;;7.45;100.00;96171.31;5389441;26;20359;-73
2024/04/20 08:47:39;;;;;;;0.80;0.80;;;;;;;7.61;100.00;96171.38;5391877;26;20317;-72
2024/04/20 08:50:12;;;;;;;2.03;0.80;;;;;;;7.94;100.00;96173.06;5390292;26;20339;-72
2024/04/20 08:52:43;;;;;;;1.20;0.60;;;;;;;8.02;100.00;96170.47;5389593;26;20638;-72
2024/04/20 08:55:12;;;;;;;2.90;1.30;;;;;;;7.88;100.00;96178.97;5389227;26;20324;-72
2024/04/20 08:57:41;;;;;;;2.97;1.03;;;;;;;8.34;100.00;96186.22;5391411;26;20235;-72
2024/04/20 09:00:10;;;;;;;1.20;1.10;;;;;;;8.23;100.00;96182.13;5390502;26;20431;-72
2024/04/20 09:02:42;;;;;;;0.70;0.67;;;;;;;8.42;100.00;96191.50;5392374;26;20277;-72
2024/04/20 09:05:12;;;;;;;1.90;0.90;;;;;;;8.13;100.00;96201.63;5393502;26;20226;-72
2024/04/20 09:07:40;;;;;;;0.80;0.80;;;;;;;8.23;100.00;96202.31;5396170;26;20227;-72
2024/04/20 09:10:09;;;;;;;0.67;0.67;;;;;;;8.33;100.00;96197.72;5395271;26;20290;-72
2024/04/20 09:12:38;;;;;;;1.23;0.73;;;;;;;8.46;100.00;96208.56;5395823;26;20234;-72
2024/04/20 09:15:08;;;;;;;0.57;0.57;;;;;;;8.48;98.98;96202.16;5394867;26;20351;-72
2024/04/20 09:17:36;;;;;;;0.50;0.50;;;;;;;8.35;92.84;96211.50;5394787;26;20359;-72
2024/04/20 09:20:04;;;;;;;1.40;0.83;;;;;;;8.30;97.08;96211.16;5396250;26;20227;-73
2024/04/20 09:22:35;;;;;;;1.07;1.00;;;;;;;8.37;94.09;96218.22;5393218;26;21668;-72
2024/04/20 09:25:03;;;;;;;2.87;1.13;;;;;;;8.29;99.33;96212.19;5395179;26;20837;-73
2024/04/20 09:27:32;;;;;;;1.37;0.87;;;;;;;8.39;92.50;96223.31;5391887;26;20353;-73
2024/04/20 09:30:03;;;;;;;1.20;0.77;;;;;;;8.46;94.62;96217.25;5394697;26;20966;-73
2024/04/20 09:32:34;;;;;;;1.00;0.77;;;;;;;8.59;99.67;96221.03;5393229;26;20709;-73
2024/04/20 09:35:02;;;;;;;1.13;0.73;;;;;;;8.59;99.57;96225.44;5395068;26;20235;-73
2024/04/20 09:37:30;;;;;;;0.70;0.70;;;;;;;8.43;96.76;96227.28;5394924;26;20227;-73
2024/04/20 09:40:01;;;;;;;0.77;0.60;;;;;;;7.97;95.16;96227.84;5395737;26;20227;-72
2024/04/20 09:42:31;;;;;;;3.03;0.90;;;;;;;7.88;97.17;96229.63;5393820;26;20251;-73
2024/04/20 09:45:01;;;;;;;2.30;0.80;;;;;;;7.77;97.04;96229.09;5395437;26;20234;-73
2024/04/20 09:47:36;;;;;;;2.90;0.93;;;;;;;8.13;100.00;96233.13;5394599;26;20294;-72
2024/04/20 09:50:10;;;;;;;0.60;0.60;;;;;;;8.18;98.72;96236.09;5394930;26;20265;-72
2024/04/20 09:52:54;;;;;;;0.97;0.70;;;;;;;8.62;99.37;96246.94;5393269;26;20346;-73
2024/04/20 09:55:30;;;;;;;0.83;0.77;;;;;;;8.57;99.52;96243.19;5394299;26;20235;-73
2024/04/20 09:57:59;;;;;;;3.90;1.47;;;;;;;8.15;93.66;96246.94;5393726;26;20339;-73
2024/04/20 10:00:27;;;;;;;0.80;0.70;;;;;;;7.81;94.92;96254.03;5394543;26;20368;-73
2024/04/20 10:02:57;;;;;;;1.23;0.80;;;;;;;8.14;100.00;96245.28;5392683;26;20243;-72
2024/04/20 10:05:27;;;;;;;0.70;0.60;;;;;;;7.57;98.03;96258.38;5394025;26;20235;-72
2024/04/20 10:07:56;;;;;;;1.07;0.80;;;;;;;7.58;100.00;96260.84;5394490;26;20235;-73
2024/04/20 10:10:27;;;;;;;0.63;0.63;;;;;;;7.79;100.00;96260.41;5395445;26;20331;-73
2024/04/20 10:13:00;;;;;;;1.20;0.70;;;;;;;7.89;100.00;96256.66;5394098;26;20231;-72
2024/04/20 10:15:28;;;;;;;0.70;0.60;;;;;;;7.73;100.00;96272.38;5394920;26;20833;-72
2024/04/20 10:17:57;;;;;;;0.97;0.77;;;;;;;7.76;100.00;96261.56;5394842;26;21445;-72
2024/04/20 10:20:32;;;;;;;2.17;0.90;;;;;;;7.83;100.00;96264.38;5394740;26;20335;-72
2024/04/20 10:23:00;;;;;;;0.80;0.77;;;;;;;7.83;100.00;96267.81;5392140;26;20231;-73
2024/04/20 10:25:34;;;;;;;3.63;1.00;;;;;;;8.44;100.00;96265.66;5394731;26;20231;-73
2024/04/20 10:28:03;;;;;;;13.27;0.97;;;;;;;8.24;100.00;96270.41;5389416;26;20287;-73
2024/04/20 10:30:31;;;;;;;0.90;0.90;;;;;;;8.37;99.64;96267.31;5392525;26;20369;-73
2024/04/20 10:33:06;;;;;;;1.30;0.83;;;;;;;8.63;96.11;96263.53;5391032;26;20338;-72
2024/04/20 10:35:35;;;;;;;0.80;0.80;;;;;;;8.59;91.63;96263.06;5393276;26;20226;-73
2024/04/20 10:38:07;;;;;;;1.40;1.30;;;;;;;8.66;89.48;96266.66;5393620;26;20321;-72
2024/04/20 10:40:39;;;;;;;1.43;0.70;;;;;;;8.88;87.41;96273.84;5394138;26;20254;-73
2024/04/20 10:43:12;;;;;;;1.80;0.70;;;;;;;9.20;86.65;96284.31;5393616;26;20324;-73
2024/04/20 10:45:40;;;;;;;0.70;0.70;;;;;;;8.98;89.33;96277.13;5394097;26;20239;-73
2024/04/20 10:48:12;;;;;;;0.77;0.73;;;;;;;8.76;91.24;96285.69;5393761;26;20231;-73
2024/04/20 10:50:43;;;;;;;2.13;0.97;;;;;;;9.08;87.38;96279.59;5392247;26;20274;-73
2024/04/20 10:53:12;;;;;;;1.53;0.60;;;;;;;9.28;91.48;96293.03;5389689;26;20234;-73
2024/04/20 10:55:43;;;;;;;0.60;0.60;;;;;;;9.08;85.86;96288.28;5389657;26;20235;-72
2024/04/20 10:58:11;;;;;;;2.07;0.63;;;;;;;9.21;86.94;96278.88;5389318;26;20227;-73
2024/04/20 11:00:39;;;;;;;1.37;1.10;;;;;;;9.18;83.22;96292.38;5388964;26;20740;-73
2024/04/20 11:03:08;;;;;;;1.23;0.87;;;;;;;9.21;84.72;96286.78;5387747;26;20235;-73
2024/04/20 11:05:36;;;;;;;0.60;0.60;;;;;;;9.40;85.10;96282.97;5392251;26;20331;-73
2024/04/20 11:08:04;;;;;;;1.63;0.80;;;;;;;9.18;86.22;96291.56;5393397;26;20230;-73
2024/04/20 11:10:33;;;;;;;0.97;0.80;;;;;;;9.51;86.81;96278.16;5390010;26;20278;-73
2024/04/20 11:13:05;;;;;;;0.93;0.70;;;;;;;9.76;86.69;96277.91;5392689;26;20360;-73
2024/04/20 11:15:35;;;;;;;2.77;0.80;;;;;;;9.48;86.95;96290.84;5390885;26;20227;-73
2024/04/20 11:18:03;;;;;;;0.80;0.80;;;;;;;9.20;92.10;96293.06;5392429;26;20335;-73
2024/04/20 11:20:32;;;;;;;0.87;0.80;;;;;;;9.09;86.64;96300.47;5391967;26;20326;-73
2024/04/20 11:23:03;;;;;;;0.43;0.43;;;;;;;8.61;85.98;96303.09;5390399;26;20814;-73
2024/04/20 11:25:31;;;;;;;1.00;0.90;;;;;;;8.40;89.31;96304.56;5392505;26;20226;-73
2024/04/20 11:28:04;;;;;;;0.90;0.90;;;;;;;8.49;90.16;96308.84;5392199;26;20262;-73
2024/04/20 11:30:40;;;;;;;2.07;0.70;;;;;;;8.40;95.06;96309.81;5393211;26;20227;-73
2024/04/20 11:33:08;;;;;;;1.10;0.90;;;;;;;8.27;95.87;96308.63;5392560;26;20763;-73
2024/04/20 11:35:37;;;;;;;1.07;0.80;;;;;;;8.21;98.20;96311.88;5392101;26;20227;-73
2024/04/20 11:38:06;;;;;;;4.53;0.87;;;;;;;8.01;100.00;96321.00;5391871;26;20733;-73
2024/04/20 11:40:34;;;;;;;1.33;1.00;;;;;;;8.04;100.00;96307.56;5390086;26;20285;-73
2024/04/20 11:43:06;;;;;;;1.23;0.93;;;;;;;8.34;100.00;96309.63;5389815;26;20231;-73
2024/04/20 11:45:35;;;;;;;1.27;0.90;;;;;;;8.53;100.00;96310.97;5390069;26;20223;-73